createdAt,value
2022-12-08T00:00:53.312Z,-4.32
2022-12-08T00:01:53.371Z,-4.32
2022-12-08T00:02:53.438Z,-4.28
2022-12-08T00:03:54.044Z,-4.27
2022-12-08T00:04:53.311Z,-4.27
2022-12-08T00:05:53.293Z,-4.26
2022-12-08T00:06:53.315Z,-4.21
2022-12-08T00:07:53.553Z,-4.22
2022-12-08T00:08:53.362Z,-4.22
2022-12-08T00:09:53.332Z,-4.16
2022-12-08T00:10:53.347Z,-4.14
2022-12-08T00:11:55.129Z,-4.13
2022-12-08T00:12:53.383Z,-4.13
2022-12-08T00:13:53.370Z,-4.1
2022-12-08T00:14:53.649Z,-4.06
2022-12-08T00:15:53.411Z,-4.04
2022-12-08T00:16:53.696Z,-4.04
2022-12-08T00:17:53.416Z,-4.04
2022-12-08T00:18:53.468Z,-4.04
2022-12-08T00:19:53.451Z,-4.03
2022-12-08T00:20:57.371Z,-3.97
2022-12-08T00:21:54.169Z,-3.98
2022-12-08T00:22:53.603Z,-3.98
2022-12-08T00:23:54.672Z,-3.95
2022-12-08T00:24:53.618Z,-3.94
2022-12-08T00:25:53.813Z,-3.95
2022-12-08T00:26:53.715Z,-3.96
2022-12-08T00:27:53.679Z,-3.97
2022-12-08T00:28:53.707Z,-3.94
2022-12-08T00:29:53.688Z,-3.92
2022-12-08T00:30:53.736Z,-3.96
2022-12-08T00:31:53.883Z,-3.96
2022-12-08T00:32:53.751Z,-3.92
2022-12-08T00:33:53.772Z,-3.91
2022-12-08T00:34:53.751Z,-3.76
2022-12-08T00:35:53.873Z,-3.68
2022-12-08T00:36:53.816Z,-3.69
2022-12-08T00:37:59.075Z,-3.76
2022-12-08T00:38:57.179Z,-3.81
2022-12-08T00:39:57.034Z,-3.82
2022-12-08T00:40:57.048Z,-3.82
2022-12-08T00:41:57.140Z,-3.84
2022-12-08T00:42:57.102Z,-3.81
2022-12-08T00:43:57.085Z,-3.84
2022-12-08T00:44:57.090Z,-3.85
2022-12-08T00:45:57.222Z,-3.78
2022-12-08T00:46:57.149Z,-3.8
2022-12-08T00:47:57.146Z,-3.78
2022-12-08T00:48:57.153Z,-3.73
2022-12-08T00:49:57.442Z,-3.73
2022-12-08T00:50:57.193Z,-3.71
2022-12-08T00:51:57.196Z,-3.71
2022-12-08T00:52:57.267Z,-3.71
2022-12-08T00:53:57.206Z,-3.69
2022-12-08T00:54:57.219Z,-3.69
2022-12-08T00:55:57.261Z,-3.65
2022-12-08T00:56:57.485Z,-3.65
2022-12-08T00:57:57.293Z,-3.66
2022-12-08T00:58:57.288Z,-3.65
2022-12-08T00:59:57.292Z,-3.63
2022-12-08T01:00:57.324Z,-3.62
2022-12-08T01:01:57.348Z,-3.62
2022-12-08T01:02:57.408Z,-3.61
2022-12-08T01:03:57.337Z,-3.6
2022-12-08T01:04:57.363Z,-3.59
2022-12-08T01:06:02.350Z,-3.53
2022-12-08T01:06:58.579Z,-3.56
2022-12-08T01:07:58.936Z,-3.54
2022-12-08T01:08:58.610Z,-3.55
2022-12-08T01:09:58.617Z,-3.52
2022-12-08T01:12:00.672Z,-3.49
2022-12-08T01:13:00.570Z,-3.47
2022-12-08T01:14:00.649Z,-3.52
2022-12-08T01:15:02.458Z,-3.47
2022-12-08T01:16:00.599Z,-3.44
2022-12-08T01:17:00.740Z,-3.48
2022-12-08T01:18:00.632Z,-3.41
2022-12-08T01:19:00.708Z,-3.39
2022-12-08T01:20:00.650Z,-3.37
2022-12-08T01:21:07.695Z,-3.37
2022-12-08T01:22:03.915Z,-3.38
2022-12-08T01:23:03.994Z,-3.38
2022-12-08T01:24:04.248Z,-3.32
2022-12-08T01:25:04.329Z,-3.31
2022-12-08T01:26:05.116Z,-3.3
2022-12-08T01:27:04.022Z,-3.27
2022-12-08T01:28:04.183Z,-3.26
2022-12-08T01:29:04.034Z,-3.26
2022-12-08T01:30:05.000Z,-3.24
2022-12-08T01:31:04.116Z,-3.2
2022-12-08T01:32:04.273Z,-3.2
2022-12-08T01:33:04.177Z,-3.23
2022-12-08T01:34:04.131Z,-3.17
2022-12-08T01:35:04.289Z,-3.21
2022-12-08T01:36:04.400Z,-3.16
2022-12-08T01:37:04.117Z,-3.18
2022-12-08T01:38:04.108Z,-3.18
2022-12-08T01:39:05.380Z,-3.13
2022-12-08T01:40:05.034Z,-3.13
2022-12-08T01:41:04.152Z,-3.12
2022-12-08T01:42:04.425Z,-3.09
2022-12-08T01:43:04.171Z,-3.09
2022-12-08T01:45:07.163Z,-3.06
2022-12-08T01:46:05.750Z,-3.07
2022-12-08T01:47:05.488Z,-3.08
2022-12-08T01:48:09.095Z,-3.08
2022-12-08T01:50:08.265Z,-3.03
2022-12-08T01:51:06.817Z,-3.03
2022-12-08T01:53:16.073Z,-2.98
2022-12-08T01:54:13.486Z,-2.95
2022-12-08T01:55:17.013Z,-2.87
2022-12-08T01:56:19.485Z,-2.89
2022-12-08T01:57:23.706Z,-2.9
2022-12-08T01:58:27.079Z,-2.85
2022-12-08T01:59:24.663Z,-2.85
2022-12-08T02:00:23.844Z,-2.83
2022-12-08T02:01:24.012Z,-2.82
2022-12-08T02:02:26.017Z,-2.84
2022-12-08T02:03:26.823Z,-2.81
2022-12-08T02:04:23.783Z,-2.83
2022-12-08T02:05:26.142Z,-2.83
2022-12-08T02:06:23.964Z,-2.82
2022-12-08T02:07:24.205Z,-2.8
2022-12-08T02:08:24.232Z,-2.79
2022-12-08T02:09:24.191Z,-2.74
2022-12-08T02:10:24.942Z,-2.73
2022-12-08T02:11:24.054Z,-2.73
2022-12-08T02:12:24.108Z,-2.68
2022-12-08T02:13:24.513Z,-2.7
2022-12-08T02:14:24.460Z,-2.69
2022-12-08T02:15:31.873Z,-2.63
2022-12-08T02:20:41.238Z,-2.55
2022-12-08T02:44:36.667Z,-2.22
2022-12-08T02:46:38.267Z,-2.24
2022-12-08T02:47:35.951Z,-2.21
2022-12-08T02:48:36.468Z,-2.16
2022-12-08T02:49:35.588Z,-2.17
2022-12-08T02:50:35.540Z,-2.21
2022-12-08T02:51:35.476Z,-2.17
2022-12-08T02:52:39.918Z,-2.16
2022-12-08T02:53:36.762Z,-2.12
2022-12-08T02:54:36.875Z,-2.13
2022-12-08T03:03:09.963Z,-1.95
2022-12-08T03:08:22.486Z,-1.94
2022-12-08T03:10:33.419Z,-1.88
2022-12-08T03:11:30.477Z,-1.88
2022-12-08T03:12:36.191Z,-1.88
2022-12-08T03:14:28.581Z,-1.86
2022-12-08T03:15:27.664Z,-1.87
2022-12-08T03:16:29.021Z,-1.85
2022-12-08T03:17:29.271Z,-1.83
2022-12-08T03:18:29.116Z,-1.85
2022-12-08T03:19:30.782Z,-1.78
2022-12-08T03:20:29.755Z,-1.77
2022-12-08T03:21:29.718Z,-1.79
2022-12-08T03:22:28.965Z,-1.77
2022-12-08T03:23:27.996Z,-1.78
2022-12-08T03:24:27.612Z,-1.74
2022-12-08T03:25:30.525Z,-1.74
2022-12-08T03:26:32.291Z,-1.76
2022-12-08T03:27:29.270Z,-1.75
2022-12-08T03:28:28.671Z,-1.67
2022-12-08T03:29:29.293Z,-1.71
2022-12-08T03:30:31.061Z,-1.71
2022-12-08T03:31:31.480Z,-1.74
2022-12-08T03:33:36.259Z,-1.67
2022-12-08T03:34:34.544Z,-1.65
2022-12-08T03:35:35.431Z,-1.65
2022-12-08T03:36:33.414Z,-1.7
2022-12-08T03:37:35.531Z,-1.72
2022-12-08T03:39:37.034Z,-1.65
2022-12-08T03:40:37.727Z,-1.66
2022-12-08T03:41:37.040Z,-1.64
2022-12-08T03:42:37.033Z,-1.6
2022-12-08T03:43:37.062Z,-1.59
2022-12-08T03:44:37.096Z,-1.57
2022-12-08T03:45:37.075Z,-1.61
2022-12-08T03:46:37.123Z,-1.58
2022-12-08T03:47:37.215Z,-1.57
2022-12-08T03:48:37.138Z,-1.56
2022-12-08T03:49:37.168Z,-1.55
2022-12-08T03:50:37.504Z,-1.53
2022-12-08T03:51:37.166Z,-1.53
2022-12-08T03:52:37.209Z,-1.56
2022-12-08T03:53:37.319Z,-1.58
2022-12-08T03:54:37.251Z,-1.58
2022-12-08T03:55:37.252Z,-1.6
2022-12-08T03:56:38.328Z,-1.57
2022-12-08T03:57:37.297Z,-1.56
2022-12-08T03:58:37.735Z,-1.59
2022-12-08T03:59:37.418Z,-1.58
2022-12-08T04:00:37.333Z,-1.6
2022-12-08T04:01:37.546Z,-1.55
2022-12-08T04:02:37.409Z,-1.54
2022-12-08T04:03:37.428Z,-1.55
2022-12-08T04:04:37.399Z,-1.57
2022-12-08T04:05:37.470Z,-1.54
2022-12-08T04:06:37.417Z,-1.54
2022-12-08T04:07:37.574Z,-1.57
2022-12-08T04:08:37.585Z,-1.55
2022-12-08T04:09:37.514Z,-1.54
2022-12-08T04:10:37.567Z,-1.53
2022-12-08T04:11:37.490Z,-1.49
2022-12-08T04:12:37.557Z,-1.42
2022-12-08T04:13:38.635Z,-1.45
2022-12-08T04:14:38.005Z,-1.32
2022-12-08T04:15:38.133Z,-1.37
2022-12-08T04:16:38.083Z,-1.4
2022-12-08T04:17:38.132Z,-1.42
2022-12-08T04:18:38.046Z,-1.43
2022-12-08T04:19:38.046Z,-1.43
2022-12-08T04:21:40.904Z,-1.45
2022-12-08T04:22:41.011Z,-1.42
2022-12-08T04:23:41.497Z,-1.42
2022-12-08T04:24:40.963Z,-1.42
2022-12-08T04:25:41.017Z,-1.44
2022-12-08T04:26:41.007Z,-1.43
2022-12-08T04:27:41.033Z,-1.43
2022-12-08T04:28:41.004Z,-1.39
2022-12-08T04:29:41.102Z,-1.36
2022-12-08T04:30:41.028Z,-1.41
2022-12-08T04:31:41.258Z,-1.41
2022-12-08T04:32:45.853Z,-1.36
2022-12-08T04:33:44.388Z,-1.39
2022-12-08T04:34:43.568Z,-1.36
2022-12-08T04:35:43.603Z,-1.36
2022-12-08T04:36:43.629Z,-1.33
2022-12-08T04:37:44.063Z,-1.35
2022-12-08T04:38:43.646Z,-1.33
2022-12-08T04:39:43.660Z,-1.32
2022-12-08T04:40:43.709Z,-1.34
2022-12-08T04:41:43.703Z,-1.31
2022-12-08T04:42:43.747Z,-1.33
2022-12-08T04:43:43.741Z,-1.31
2022-12-08T04:44:43.724Z,-1.3
2022-12-08T04:45:43.768Z,-1.27
2022-12-08T04:46:44.038Z,-1.3
2022-12-08T04:47:43.883Z,-1.29
2022-12-08T04:48:43.802Z,-1.27
2022-12-08T04:49:43.804Z,-1.27
2022-12-08T04:50:44.929Z,-1.25
2022-12-08T04:51:43.855Z,-1.28
2022-12-08T04:52:43.905Z,-1.3
2022-12-08T04:53:46.677Z,-1.3
2022-12-08T04:54:43.910Z,-1.28
2022-12-08T04:55:44.549Z,-1.28
2022-12-08T04:56:43.913Z,-1.27
2022-12-08T04:57:44.023Z,-1.26
2022-12-08T04:58:44.477Z,-1.23
2022-12-08T04:59:43.980Z,-1.24
2022-12-08T05:00:44.222Z,-1.25
2022-12-08T05:01:44.201Z,-1.25
2022-12-08T05:02:44.091Z,-1.25
2022-12-08T05:03:44.054Z,-1.2
2022-12-08T05:04:44.066Z,-1.22
2022-12-08T05:05:44.085Z,-1.24
2022-12-08T05:06:44.135Z,-1.25
2022-12-08T05:07:44.242Z,-1.23
2022-12-08T05:08:44.166Z,-1.24
2022-12-08T05:09:44.214Z,-1.23
2022-12-08T05:10:44.149Z,-1.21
2022-12-08T05:11:48.819Z,-1.22
2022-12-08T05:12:45.681Z,-1.21
2022-12-08T05:13:45.600Z,-1.22
2022-12-08T05:14:46.949Z,-1.23
2022-12-08T05:15:46.109Z,-1.21
2022-12-08T05:16:46.605Z,-1.19
2022-12-08T05:17:46.204Z,-1.21
2022-12-08T05:18:46.163Z,-1.22
2022-12-08T05:19:46.336Z,-1.2
2022-12-08T05:20:46.184Z,-1.19
2022-12-08T05:21:46.381Z,-1.17
2022-12-08T05:22:46.242Z,-1.22
2022-12-08T05:23:46.281Z,-1.2
2022-12-08T05:24:47.847Z,-1.17
2022-12-08T05:25:46.502Z,-1.16
2022-12-08T05:26:46.328Z,-1.21
2022-12-08T05:27:46.299Z,-1.19
2022-12-08T05:28:46.392Z,-1.21
2022-12-08T05:29:46.331Z,-1.18
2022-12-08T05:30:46.530Z,-1.13
2022-12-08T05:31:46.446Z,-1.17
2022-12-08T05:32:46.382Z,-1.17
2022-12-08T05:33:46.482Z,-1.17
2022-12-08T05:34:46.414Z,-1.19
2022-12-08T05:35:46.411Z,-1.16
2022-12-08T05:36:46.460Z,-1.15
2022-12-08T05:37:46.451Z,-1.16
2022-12-08T05:38:46.929Z,-1.15
2022-12-08T05:39:46.500Z,-1.16
2022-12-08T05:40:46.496Z,-1.16
2022-12-08T05:41:46.528Z,-1.17
2022-12-08T05:42:46.529Z,-1.13
2022-12-08T05:43:46.765Z,-1.14
2022-12-08T05:44:46.555Z,-1.13
2022-12-08T05:45:46.628Z,-1.15
2022-12-08T05:46:46.588Z,-1.13
2022-12-08T05:47:46.588Z,-1.15
2022-12-08T05:48:46.684Z,-1.13
2022-12-08T05:49:46.673Z,-1.15
2022-12-08T05:50:47.097Z,-1.15
2022-12-08T05:51:46.691Z,-1.13
2022-12-08T05:52:46.703Z,-1.16
2022-12-08T05:53:47.761Z,-1.14
2022-12-08T05:54:46.767Z,-1.12
2022-12-08T05:55:47.313Z,-1.11
2022-12-08T05:56:46.811Z,-1.13
2022-12-08T05:57:46.816Z,-1.13
2022-12-08T05:58:47.039Z,-1.14
2022-12-08T05:59:46.886Z,-1.17
2022-12-08T06:00:47.371Z,-1.14
2022-12-08T06:01:46.929Z,-1.16
2022-12-08T06:02:47.138Z,-1.12
2022-12-08T06:03:46.926Z,-1.15
2022-12-08T06:04:46.970Z,-1.11
2022-12-08T06:05:47.306Z,-1.1
2022-12-08T06:06:46.983Z,-1.13
2022-12-08T06:07:47.400Z,-1.12
2022-12-08T06:08:46.997Z,-1.06
2022-12-08T06:09:47.110Z,-1.09
2022-12-08T06:10:47.324Z,-1.11
2022-12-08T06:11:47.093Z,-1.09
2022-12-08T06:12:47.057Z,-1.07
2022-12-08T06:13:47.461Z,-1.11
2022-12-08T06:14:47.152Z,-1.08
2022-12-08T06:15:47.100Z,-1.11
2022-12-08T06:16:47.209Z,-1.1
2022-12-08T06:17:47.164Z,-1.09
2022-12-08T06:18:47.167Z,-1.11
2022-12-08T06:19:47.191Z,-1.12
2022-12-08T06:20:47.197Z,-1.15
2022-12-08T06:21:47.196Z,-1.12
2022-12-08T06:22:47.234Z,-1.11
2022-12-08T06:23:48.468Z,-1.07
2022-12-08T06:24:47.292Z,-1.09
2022-12-08T06:25:47.237Z,-1.09
2022-12-08T06:26:47.319Z,-1.07
2022-12-08T06:27:47.288Z,-1.08
2022-12-08T06:28:47.339Z,-1.1
2022-12-08T06:29:47.354Z,-1.09
2022-12-08T06:30:47.578Z,-1.1
2022-12-08T06:31:47.582Z,-1.09
2022-12-08T06:32:47.372Z,-1.04
2022-12-08T06:33:47.805Z,-1.04
2022-12-08T06:34:47.443Z,-1.03
2022-12-08T06:35:47.421Z,-1.06
2022-12-08T06:36:47.448Z,-1.07
2022-12-08T06:37:47.459Z,-1.11
2022-12-08T06:38:47.601Z,-1.11
2022-12-08T06:39:47.499Z,-1.08
2022-12-08T06:41:49.191Z,-1.05
2022-12-08T06:42:49.182Z,-1.04
2022-12-08T06:43:49.210Z,-1.05
2022-12-08T06:44:50.250Z,-1.07
2022-12-08T06:45:49.398Z,-1.06
2022-12-08T06:46:49.244Z,-1.03
2022-12-08T06:47:49.263Z,-1.07
2022-12-08T06:48:49.397Z,-1.07
2022-12-08T06:49:49.299Z,-1.09
2022-12-08T06:50:49.339Z,-1.09
2022-12-08T06:51:49.355Z,-1.07
2022-12-08T06:52:59.581Z,-1.08
2022-12-08T06:53:51.360Z,-1.08
2022-12-08T06:54:51.388Z,-1.09
2022-12-08T06:55:59.218Z,-1.09
2022-12-08T06:56:51.688Z,-1.01
2022-12-08T06:57:54.198Z,-1.1
2022-12-08T06:58:53.014Z,-1.11
2022-12-08T06:59:51.513Z,-1.09
2022-12-08T07:00:51.689Z,-1.13
2022-12-08T07:01:52.097Z,-1.1
2022-12-08T07:02:51.649Z,-1.09
2022-12-08T07:03:51.581Z,-1.1
2022-12-08T07:04:51.620Z,-1.11
2022-12-08T07:05:57.791Z,-1.13
2022-12-08T07:06:53.599Z,-1.07
2022-12-08T07:07:53.739Z,-1.09
2022-12-08T07:08:53.668Z,-1.06
2022-12-08T07:09:53.824Z,-1.08
2022-12-08T07:10:53.674Z,-1.07
2022-12-08T07:11:53.828Z,-1.11
2022-12-08T07:12:53.714Z,-1.09
2022-12-08T07:13:55.826Z,-1.08
2022-12-08T07:14:53.717Z,-1.04
2022-12-08T07:15:53.777Z,-1.08
2022-12-08T07:16:53.902Z,-1.07
2022-12-08T07:17:59.518Z,-1.05
2022-12-08T07:18:57.002Z,-0.99
2022-12-08T07:19:56.864Z,-1.01
2022-12-08T07:20:56.875Z,-0.99
2022-12-08T07:21:56.960Z,-0.99
2022-12-08T07:22:56.904Z,-1
2022-12-08T07:23:58.082Z,-1
2022-12-08T07:24:56.940Z,-1.02
2022-12-08T07:25:59.716Z,-1.01
2022-12-08T07:26:57.057Z,-1.02
2022-12-08T07:27:57.040Z,-1.02
2022-12-08T07:28:56.988Z,-0.99
2022-12-08T07:29:57.084Z,-0.98
2022-12-08T07:30:57.133Z,-0.96
2022-12-08T07:31:57.076Z,-0.97
2022-12-08T07:32:57.095Z,-0.98
2022-12-08T07:33:57.340Z,-1
2022-12-08T07:34:57.138Z,-0.97
2022-12-08T07:35:58.171Z,-0.93
2022-12-08T07:36:57.228Z,-0.92
2022-12-08T07:37:57.213Z,-0.92
2022-12-08T07:38:57.193Z,-0.94
2022-12-08T07:39:57.255Z,-0.91
2022-12-08T07:40:57.341Z,-0.76
2022-12-08T07:41:57.495Z,-0.83
2022-12-08T07:42:57.238Z,-0.88
2022-12-08T07:43:57.378Z,-0.75
2022-12-08T07:44:57.340Z,-0.91
2022-12-08T07:45:57.369Z,-0.91
2022-12-08T07:46:57.433Z,-0.89
2022-12-08T07:47:57.345Z,-0.93
2022-12-08T07:48:57.374Z,-0.9
2022-12-08T07:49:57.500Z,-0.92
2022-12-08T07:51:01.082Z,-0.91
2022-12-08T07:51:57.787Z,-0.85
2022-12-08T07:52:58.717Z,-0.91
2022-12-08T07:53:57.804Z,-0.88
2022-12-08T07:54:57.811Z,-0.9
2022-12-08T07:55:57.939Z,-0.9
2022-12-08T07:56:58.034Z,-0.91
2022-12-08T07:57:57.967Z,-0.92
2022-12-08T07:58:57.890Z,-0.9
2022-12-08T07:59:57.895Z,-0.92
2022-12-08T08:00:58.112Z,-0.9
2022-12-08T08:02:21.284Z,-0.9
2022-12-08T08:02:59.330Z,-0.92
2022-12-08T08:04:00.689Z,-0.89
2022-12-08T08:04:59.313Z,-0.91
2022-12-08T08:06:03.589Z,-0.96
2022-12-08T08:06:59.854Z,-0.92
2022-12-08T08:07:59.959Z,-0.91
2022-12-08T08:09:00.140Z,-0.91
2022-12-08T08:10:00.153Z,-0.92
2022-12-08T08:10:59.931Z,-0.91
2022-12-08T08:12:22.677Z,-0.89
2022-12-08T08:13:01.468Z,-0.81
2022-12-08T08:14:01.264Z,-0.87
2022-12-08T08:15:01.755Z,-0.94
2022-12-08T08:17:05.496Z,-0.73
2022-12-08T08:18:05.376Z,-0.91
2022-12-08T08:19:05.374Z,-0.74
2022-12-08T08:20:07.472Z,-0.89
2022-12-08T08:21:22.222Z,-0.9
2022-12-08T08:22:07.020Z,-0.96
2022-12-08T08:23:07.065Z,-0.84
2022-12-08T08:24:07.211Z,-0.88
2022-12-08T08:25:07.475Z,-0.89
2022-12-08T08:26:07.050Z,-0.92
2022-12-08T08:27:07.111Z,-0.74
2022-12-08T08:28:07.083Z,-0.85
2022-12-08T08:29:07.127Z,-0.84
2022-12-08T08:30:08.198Z,-0.88
2022-12-08T08:31:07.577Z,-0.9
2022-12-08T08:32:07.184Z,-0.9
2022-12-08T08:33:07.185Z,-0.88
2022-12-08T08:34:07.204Z,-0.9
2022-12-08T08:35:07.955Z,-0.94
2022-12-08T08:36:07.956Z,-0.95
2022-12-08T08:37:07.403Z,-0.94
2022-12-08T08:38:07.504Z,-0.91
2022-12-08T08:39:07.384Z,-0.79
2022-12-08T08:40:08.234Z,-0.89
2022-12-08T08:41:08.396Z,-0.9
2022-12-08T08:42:07.335Z,-0.94
2022-12-08T08:43:07.327Z,-0.96
2022-12-08T08:44:07.378Z,-0.96
2022-12-08T08:45:07.799Z,-0.97
2022-12-08T08:46:07.740Z,-0.99
2022-12-08T08:47:07.454Z,-0.98
2022-12-08T08:48:07.415Z,-1.01
2022-12-08T08:49:07.606Z,-0.99
2022-12-08T08:50:08.177Z,-1.04
2022-12-08T08:51:11.500Z,-1.05
2022-12-08T08:52:07.907Z,-1
2022-12-08T08:53:07.752Z,-1
2022-12-08T08:54:07.793Z,-1.02
2022-12-08T08:55:08.085Z,-1.02
2022-12-08T08:56:08.792Z,-1.03
2022-12-08T08:57:08.600Z,-1.02
2022-12-08T08:58:07.829Z,-0.98
2022-12-08T08:59:09.028Z,-0.98
2022-12-08T09:00:08.731Z,-1.04
2022-12-08T09:01:08.153Z,-1.03
2022-12-08T09:02:12.359Z,-1.03
2022-12-08T09:03:08.695Z,-1.07
2022-12-08T09:04:09.348Z,-1.06
2022-12-08T09:05:08.975Z,-1.09
2022-12-08T09:06:08.775Z,-1.08
2022-12-08T09:07:08.741Z,-1.12
2022-12-08T09:08:08.916Z,-1.12
2022-12-08T09:09:08.758Z,-1.09
2022-12-08T09:10:09.628Z,-1.07
2022-12-08T09:11:09.398Z,-1.14
2022-12-08T09:12:08.814Z,-1.14
2022-12-08T09:13:08.845Z,-1.13
2022-12-08T09:14:11.073Z,-1.16
2022-12-08T09:15:09.189Z,-1.16
2022-12-08T09:16:09.406Z,-1.11
2022-12-08T09:17:09.184Z,-1.11
2022-12-08T09:18:08.964Z,-1.08
2022-12-08T09:19:09.059Z,-1.07
2022-12-08T09:20:09.191Z,-1.09
2022-12-08T09:22:11.005Z,-1.02
2022-12-08T09:23:11.057Z,-1.02
2022-12-08T09:24:11.056Z,-1.02
2022-12-08T09:25:11.089Z,-1.03
2022-12-08T09:26:11.171Z,-0.98
2022-12-08T09:27:11.099Z,-1
2022-12-08T09:28:11.518Z,-0.99
2022-12-08T09:29:11.522Z,-1.05
2022-12-08T09:30:11.380Z,-0.99
2022-12-08T09:31:11.258Z,-1.01
2022-12-08T09:32:11.175Z,-0.96
2022-12-08T09:33:11.212Z,-0.96
2022-12-08T09:34:12.049Z,-1
2022-12-08T09:35:11.296Z,-1
2022-12-08T09:36:11.327Z,-1.01
2022-12-08T09:37:11.259Z,-0.99
2022-12-08T09:38:11.280Z,-1.06
2022-12-08T09:39:11.253Z,-1.07
2022-12-08T09:40:15.579Z,-1.03
2022-12-08T09:42:13.866Z,-1.09
2022-12-08T09:45:18.826Z,-1.08
2022-12-08T09:46:18.889Z,-1.13
2022-12-08T09:48:24.010Z,-1.03
2022-12-08T09:49:22.383Z,-1.08
2022-12-08T09:51:26.192Z,-1.09
2022-12-08T09:52:28.033Z,-1.05
2022-12-08T09:53:35.116Z,-1.07
2022-12-08T09:54:33.463Z,-1.05
2022-12-08T09:56:32.999Z,-1.07
2022-12-08T09:57:31.285Z,-1.07
2022-12-08T09:59:33.534Z,-1.06
2022-12-08T10:00:32.794Z,-1.04
2022-12-08T10:01:33.711Z,-1.07
2022-12-08T10:02:32.608Z,-1.08
2022-12-08T10:03:32.484Z,-1.07
2022-12-08T10:04:37.033Z,-1.04
2022-12-08T10:05:34.916Z,-1.05
2022-12-08T10:10:56.676Z,-1
2022-12-08T10:17:13.050Z,-1.03
2022-12-08T10:18:12.545Z,-1.02
2022-12-08T10:19:13.260Z,-1.01
2022-12-08T10:20:15.414Z,-1.01
2022-12-08T10:21:19.450Z,-1.01
2022-12-08T10:22:19.974Z,-0.99
2022-12-08T10:23:22.718Z,-0.96
2022-12-08T10:24:26.911Z,-0.98
2022-12-08T10:25:30.260Z,-0.99
2022-12-08T10:26:26.499Z,-0.96
2022-12-08T10:27:26.859Z,-0.99
2022-12-08T10:28:26.735Z,-0.98
2022-12-08T10:29:26.575Z,-0.95
2022-12-08T10:30:26.600Z,-0.99
2022-12-08T10:31:26.663Z,-0.96
2022-12-08T10:32:33.148Z,-0.96
2022-12-08T10:33:31.592Z,-0.96
2022-12-08T10:34:29.389Z,-0.98
2022-12-08T10:37:34.018Z,-0.96
2022-12-08T10:38:35.113Z,-0.97
2022-12-08T10:39:40.752Z,-0.99
2022-12-08T10:40:43.848Z,-1
2022-12-08T10:41:42.315Z,-0.98
2022-12-08T10:42:43.410Z,-1
2022-12-08T10:43:49.770Z,-1.02
2022-12-08T10:45:48.388Z,-1.03
2022-12-08T10:46:48.239Z,-1
2022-12-08T10:50:56.773Z,-1.01
2022-12-08T10:51:55.274Z,-1.01
2022-12-08T10:52:57.217Z,-1.01
2022-12-08T10:53:55.826Z,-1.06
2022-12-08T10:55:00.200Z,-1.06
2022-12-08T10:56:06.770Z,-1.03
2022-12-08T10:56:58.783Z,-1.08
2022-12-08T10:57:58.635Z,-1.05
2022-12-08T10:59:05.901Z,-1.04
2022-12-08T11:00:03.688Z,-1.11
2022-12-08T11:01:06.245Z,-1.09
2022-12-08T11:02:03.301Z,-1.07
2022-12-08T11:03:04.513Z,-1.09
2022-12-08T11:04:04.974Z,-1.11
2022-12-08T11:05:03.272Z,-1.13
2022-12-08T11:06:11.117Z,-1.14
2022-12-08T11:07:09.571Z,-1.15
2022-12-08T11:08:08.445Z,-1.18
2022-12-08T11:10:16.879Z,-1.16
2022-12-08T11:11:08.839Z,-1.15
2022-12-08T11:12:18.367Z,-1.18
2022-12-08T11:13:16.636Z,-1.21
2022-12-08T11:14:16.472Z,-1.19
2022-12-08T11:15:17.513Z,-1.21
2022-12-08T11:16:15.679Z,-1.22
2022-12-08T11:19:20.726Z,-1.17
2022-12-08T11:20:22.415Z,-1.18
2022-12-08T11:21:20.454Z,-1.15
2022-12-08T11:23:23.847Z,-1.16
2022-12-08T11:24:26.426Z,-1.18
2022-12-08T11:25:24.421Z,-1.18
2022-12-08T11:27:24.752Z,-1.19
2022-12-08T11:28:25.526Z,-1.19
2022-12-08T11:29:24.928Z,-1.19
2022-12-08T11:32:26.312Z,-1.17
2022-12-08T11:33:27.219Z,-1.15
2022-12-08T11:34:30.761Z,-1.14
2022-12-08T11:35:33.477Z,-1.1
2022-12-08T11:36:31.850Z,-1.1
2022-12-08T11:37:35.037Z,-1.08
2022-12-08T11:38:32.850Z,-1.07
2022-12-08T11:39:34.081Z,-1.07
2022-12-08T11:40:35.316Z,-1.06
2022-12-08T11:41:35.941Z,-1.04
2022-12-08T11:42:35.547Z,-1.05
2022-12-08T11:45:40.919Z,-1.02
2022-12-08T11:47:44.857Z,-1.04
2022-12-08T11:49:42.764Z,-1
2022-12-08T11:50:46.030Z,-1.02
2022-12-08T11:52:48.244Z,-0.97
2022-12-08T11:53:52.967Z,-0.98
2022-12-08T11:55:57.241Z,-1.01
2022-12-08T11:56:57.551Z,-0.98
2022-12-08T11:57:54.697Z,-0.98
2022-12-08T11:58:56.522Z,-0.99
2022-12-08T11:59:56.014Z,-0.99
2022-12-08T12:00:53.850Z,-1.02
2022-12-08T12:01:54.190Z,-1.02
2022-12-08T12:05:11.227Z,-1.08
2022-12-08T12:06:38.305Z,-1.07
2022-12-08T12:18:37.887Z,-1.14
2022-12-08T12:19:36.407Z,-1.14
2022-12-08T12:20:41.526Z,-1.1
2022-12-08T12:22:42.153Z,-1.12
2022-12-08T12:24:47.369Z,-1.17
2022-12-08T12:26:54.070Z,-1.13
2022-12-08T12:27:57.139Z,-1.17
2022-12-08T12:29:02.077Z,-1.17
2022-12-08T12:30:00.686Z,-1.15
2022-12-08T12:31:02.126Z,-1.19
2022-12-08T12:32:02.395Z,-1.17
2022-12-08T12:33:00.351Z,-1.22
2022-12-08T12:35:01.928Z,-1.17
2022-12-08T12:36:08.662Z,-1.17
2022-12-08T12:37:16.266Z,-1.17
2022-12-08T12:38:17.498Z,-1.22
2022-12-08T12:39:12.532Z,-1.18
2022-12-08T12:40:20.479Z,-1.23
2022-12-08T12:41:13.027Z,-1.25
2022-12-08T12:48:22.277Z,-1.19
2022-12-08T12:52:36.571Z,-1.23
2022-12-08T12:54:29.168Z,-1.22
2022-12-08T12:57:39.011Z,-1.19
2022-12-08T12:58:36.968Z,-1.15
2022-12-08T13:00:37.153Z,-1.15
2022-12-08T13:01:44.897Z,-1.19
2022-12-08T13:02:48.634Z,-1.21
2022-12-08T13:03:49.241Z,-1.16
2022-12-08T13:04:52.961Z,-1.16
2022-12-08T13:05:51.495Z,-1.17
2022-12-08T13:06:50.127Z,-1.15
2022-12-08T13:08:51.708Z,-1.16
2022-12-08T13:11:58.672Z,-1.14
2022-12-08T13:14:02.521Z,-1.15
2022-12-08T13:15:03.135Z,-1.15
2022-12-08T13:17:09.836Z,-1.17
2022-12-08T13:18:15.540Z,-1.16
2022-12-08T13:19:15.943Z,-1.15
2022-12-08T13:20:17.324Z,-1.16
2022-12-08T13:21:17.944Z,-1.19
2022-12-08T13:24:26.738Z,-1.19
2022-12-08T13:28:27.375Z,-1.22
2022-12-08T13:29:24.598Z,-1.22
2022-12-08T13:33:41.011Z,-1.2
2022-12-08T13:34:40.312Z,-1.29
2022-12-08T13:37:54.296Z,-1.29
2022-12-08T13:38:47.452Z,-1.29
2022-12-08T13:39:49.537Z,-1.34
2022-12-08T13:40:46.704Z,-1.4
2022-12-08T13:41:54.602Z,-1.41
2022-12-08T13:42:57.347Z,-1.44
2022-12-08T13:47:02.708Z,-1.42
2022-12-08T13:54:09.861Z,-1.35
2022-12-08T13:55:13.585Z,-1.21
2022-12-08T13:57:00.020Z,-1.25
2022-12-08T13:58:28.682Z,-1.23
2022-12-08T13:59:28.198Z,-1.2
2022-12-08T14:00:25.700Z,-1.23
2022-12-08T14:01:25.561Z,-1.23
2022-12-08T14:02:33.071Z,-1.25
2022-12-08T14:03:30.338Z,-1.24
2022-12-08T14:04:47.939Z,-1.23
2022-12-08T14:06:36.453Z,-1.1
2022-12-08T14:07:36.120Z,-1.16
2022-12-08T14:09:00.043Z,-1.22
2022-12-08T14:09:37.051Z,-1.15
2022-12-08T14:10:36.861Z,-1.15
2022-12-08T14:11:38.734Z,-1.13
2022-12-08T14:12:37.266Z,-1.17
2022-12-08T14:13:36.950Z,-1.2
2022-12-08T14:15:01.704Z,-1.17
2022-12-08T14:15:41.211Z,-1.12
2022-12-08T14:16:42.930Z,-1.11
2022-12-08T14:18:41.516Z,-1.15
2022-12-08T14:19:45.528Z,-1.11
2022-12-08T14:21:19.034Z,-1.11
2022-12-08T14:21:46.597Z,-1.09
2022-12-08T14:22:44.056Z,-1.13
2022-12-08T14:23:45.698Z,-1.13
2022-12-08T14:25:47.178Z,-1.14
2022-12-08T14:26:46.850Z,-1.14
2022-12-08T14:27:47.589Z,-1.08
2022-12-08T14:28:46.615Z,-1.07
2022-12-08T14:30:48.613Z,-1.16
2022-12-08T14:31:48.153Z,-1.16
2022-12-08T14:32:49.447Z,-1.14
2022-12-08T14:33:53.234Z,-1.09
2022-12-08T14:34:53.216Z,-1.15
2022-12-08T14:35:54.224Z,-1.12
2022-12-08T14:36:53.157Z,-1.16
2022-12-08T14:37:57.187Z,-1.12
2022-12-08T14:38:54.360Z,-1.12
2022-12-08T14:39:56.993Z,-1.16
2022-12-08T14:41:58.999Z,-1.16
2022-12-08T14:43:59.717Z,-1.27
2022-12-08T14:45:00.528Z,-1.24
2022-12-08T14:46:00.450Z,-1.25
2022-12-08T14:47:06.291Z,-1.29
2022-12-08T14:49:02.741Z,-1.26
2022-12-08T14:50:05.110Z,-1.21
2022-12-08T14:54:14.781Z,-1.31
2022-12-08T14:55:15.252Z,-1.35
2022-12-08T14:57:14.416Z,-1.4
2022-12-08T14:58:18.422Z,-1.4
2022-12-08T14:59:19.576Z,-1.38
2022-12-08T15:00:19.703Z,-1.39
2022-12-08T15:01:18.372Z,-1.38
2022-12-08T15:02:23.520Z,-1.33
2022-12-08T15:03:21.665Z,-1.3
2022-12-08T15:04:28.405Z,-1.32
2022-12-08T15:05:29.030Z,-1.28
2022-12-08T15:06:25.292Z,-1.25
2022-12-08T15:08:28.525Z,-1.28
2022-12-08T15:09:34.886Z,-1.29
2022-12-08T15:10:32.791Z,-1.3
2022-12-08T15:11:32.538Z,-1.31
2022-12-08T15:12:31.175Z,-1.32
2022-12-08T15:13:31.269Z,-1.32
2022-12-08T15:14:32.996Z,-1.36
2022-12-08T15:15:32.208Z,-1.35
2022-12-08T15:16:37.688Z,-1.4
2022-12-08T15:18:37.415Z,-1.49
2022-12-08T15:19:35.902Z,-1.52
2022-12-08T15:20:43.667Z,-1.51
2022-12-08T15:21:39.992Z,-1.48
2022-12-08T15:22:39.878Z,-1.48
2022-12-08T15:23:42.747Z,-1.46
2022-12-08T15:24:39.929Z,-1.44
2022-12-08T15:25:39.953Z,-1.49
2022-12-08T15:26:47.386Z,-1.56
2022-12-08T15:27:50.238Z,-1.62
2022-12-08T15:28:47.219Z,-1.63
2022-12-08T15:29:47.649Z,-1.69
2022-12-08T15:30:47.256Z,-1.83
2022-12-08T15:31:47.409Z,-1.88
2022-12-08T15:32:47.246Z,-1.84
2022-12-08T15:33:47.625Z,-1.86
2022-12-08T15:34:47.343Z,-1.89
2022-12-08T15:35:50.529Z,-1.89
2022-12-08T15:36:48.872Z,-1.95
2022-12-08T15:37:47.322Z,-2.07
2022-12-08T15:38:47.322Z,-2.09
2022-12-08T15:39:47.511Z,-2.05